Time;durP1;ratioP1;P1;durP2;ratioP2;P2;SDS_P1;SDS_P2;PMS_P1;PMS_P2;Temp;Humidity;BMP_temperature;BMP_pressure;BME280_temperature;BME280_humidity;BME280_pressure;Samples;Min_cycle;Max_cycle;Signal;HPM_P1;HPM_P2
2022/05/13 00:00:33;;;;;;;7.75;2.35;;;18.30;90.50;;;;;;5018403;28;20029;-82
2022/05/13 00:02:59;;;;;;;8.13;2.95;;;18.20;90.50;;;;;;5040536;28;20116;-81
2022/05/13 00:05:25;;;;;;;8.50;2.97;;;18.20;90.70;;;;;;5042615;28;20037;-79
2022/05/13 00:07:50;;;;;;;5.28;2.40;;;18.10;90.80;;;;;;5025084;28;20465;-81
2022/05/13 00:10:16;;;;;;;7.55;2.45;;;18.20;90.80;;;;;;5027912;28;20026;-84
2022/05/13 00:12:42;;;;;;;6.95;2.45;;;18.90;91.10;;;;;;5030287;28;20021;-80
2022/05/13 00:15:13;;;;;;;8.93;3.22;;;18.00;91.10;;;;;;5037524;28;20517;-80
2022/05/13 00:17:39;;;;;;;6.30;2.47;;;18.00;91.20;;;;;;5036413;28;20112;-79
2022/05/13 00:20:05;;;;;;;9.63;3.10;;;18.30;91.20;;;;;;5026148;28;20040;-79
2022/05/13 00:22:31;;;;;;;8.43;2.58;;;17.90;91.20;;;;;;5037904;28;20407;-80
2022/05/13 00:24:58;;;;;;;8.43;2.60;;;17.80;91.20;;;;;;5041667;28;20025;-80
2022/05/13 00:27:23;;;;;;;5.15;2.20;;;17.80;91.30;;;;;;5040791;28;20017;-80
2022/05/13 00:29:49;;;;;;;6.50;2.40;;;17.90;91.50;;;;;;5039460;28;20549;-80
2022/05/13 00:32:16;;;;;;;7.07;2.70;;;17.90;91.50;;;;;;5035355;28;20022;-79
2022/05/13 00:34:43;;;;;;;10.18;3.28;;;17.90;91.50;;;;;;5020181;28;20026;-80
2022/05/13 00:37:09;;;;;;;9.93;3.58;;;18.00;91.50;;;;;;5016288;28;20037;-79
2022/05/13 00:39:35;;;;;;;6.07;2.50;;;;;;;;;;5039010;28;20025;-79
2022/05/13 00:42:12;;;;;;;8.15;2.90;;;17.90;91.20;;;;;;5038910;28;20151;-78
2022/05/13 00:44:37;;;;;;;7.38;2.47;;;17.90;91.40;;;;;;5024794;28;20025;-79
2022/05/13 00:47:04;;;;;;;6.38;2.30;;;18.50;91.70;;;;;;5027289;28;20390;-80
2022/05/13 00:49:31;;;;;;;9.63;2.42;;;17.90;91.90;;;;;;5041585;28;20045;-78
2022/05/13 00:51:59;;;;;;;8.95;3.60;;;17.90;92.20;;;;;;5022404;28;20248;-79
2022/05/13 00:54:25;;;;;;;4.75;1.90;;;17.90;92.40;;;;;;5025560;28;20021;-80
2022/05/13 00:56:52;;;;;;;8.68;2.75;;;17.80;92.50;;;;;;5037165;28;20073;-80
2022/05/13 00:59:21;;;;;;;10.57;2.35;;;17.90;92.70;;;;;;5029768;28;20025;-80
2022/05/13 01:01:48;;;;;;;5.60;2.05;;;17.70;92.80;;;;;;5040600;28;20052;-80
2022/05/13 01:04:17;;;;;;;6.93;2.28;;;21.40;93.70;;;;;;5042673;28;20487;-78
2022/05/13 01:06:49;;;;;;;8.70;2.45;;;17.60;92.60;;;;;;5020844;28;20069;-80
2022/05/13 01:09:15;;;;;;;6.93;2.10;;;;;;;;;;5040775;28;20124;-79
2022/05/13 01:11:43;;;;;;;7.80;2.35;;;17.50;92.40;;;;;;5042477;28;20395;-77
2022/05/13 01:14:14;;;;;;;7.75;2.70;;;17.50;92.40;;;;;;5043677;28;20032;-80
2022/05/13 01:19:24;;;;;;;8.15;2.30;;;17.70;92.80;;;;;;5039398;28;20032;-78
2022/05/13 01:21:50;;;;;;;6.63;1.98;;;17.60;91.90;;;;;;5039380;28;20468;-81
2022/05/13 01:24:18;;;;;;;3.88;1.77;;;17.50;92.10;;;;;;5037352;28;20049;-80
2022/05/13 01:26:44;;;;;;;8.75;2.33;;;17.50;91.90;;;;;;5019796;28;20049;-80
2022/05/13 01:29:09;;;;;;;6.93;2.40;;;17.50;92.30;;;;;;5035378;28;20426;-79
2022/05/13 01:31:37;;;;;;;7.38;2.28;;;17.40;92.50;;;;;;5025774;28;20025;-81
2022/05/13 01:34:07;;;;;;;5.68;1.70;;;17.40;92.80;;;;;;5020562;28;20029;-81
2022/05/13 01:36:35;;;;;;;4.28;1.77;;;17.40;92.60;;;;;;5040935;28;20033;-79
2022/05/13 01:39:00;;;;;;;7.43;2.03;;;17.40;92.70;;;;;;5025031;28;20108;-81
2022/05/13 01:41:28;;;;;;;7.45;2.15;;;17.40;92.80;;;;;;5045252;28;20021;-80
2022/05/13 01:43:55;;;;;;;4.80;2.00;;;17.40;92.80;;;;;;5047586;28;20116;-80
2022/05/13 01:46:22;;;;;;;9.57;2.83;;;17.50;92.90;;;;;;5037461;28;20081;-79
2022/05/13 01:48:48;;;;;;;9.15;2.00;;;17.50;92.80;;;;;;5020439;28;20207;-79
2022/05/13 01:51:14;;;;;;;4.80;1.80;;;17.60;92.60;;;;;;5022307;28;20272;-80
2022/05/13 01:53:40;;;;;;;6.57;2.22;;;17.60;92.70;;;;;;5037879;28;20022;-80
2022/05/13 01:56:07;;;;;;;6.75;2.20;;;17.70;92.80;;;;;;5025845;28;20177;-79
2022/05/13 01:58:33;;;;;;;14.55;2.33;;;17.50;92.60;;;;;;5040204;28;20432;-79
2022/05/13 02:01:00;;;;;;;4.68;1.70;;;17.50;92.70;;;;;;5033851;28;20025;-79
2022/05/13 02:03:45;;;;;;;4.75;2.00;;;17.40;92.70;;;;;;5039203;28;20076;-80
2022/05/13 02:06:17;;;;;;;6.72;2.45;;;17.30;93.00;;;;;;5040514;28;20049;-80
2022/05/13 02:08:44;;;;;;;5.38;1.92;;;17.30;93.10;;;;;;5040705;28;20025;-81
2022/05/13 02:11:10;;;;;;;8.73;2.50;;;17.30;93.20;;;;;;5041452;28;20026;-79
2022/05/13 02:13:37;;;;;;;9.98;2.40;;;17.20;93.30;;;;;;5022171;28;20022;-78
2022/05/13 02:16:03;;;;;;;7.35;2.33;;;17.20;93.30;;;;;;5038359;28;20036;-83
2022/05/13 02:18:29;;;;;;;7.72;2.30;;;17.20;93.40;;;;;;5038443;28;20480;-80
2022/05/13 02:20:55;;;;;;;7.32;2.08;;;17.20;93.60;;;;;;5027707;28;20025;-80
2022/05/13 02:23:22;;;;;;;8.07;2.20;;;17.20;93.60;;;;;;5042383;28;20122;-79
2022/05/13 02:25:49;;;;;;;5.85;2.10;;;17.40;93.80;;;;;;5041110;28;20030;-80
2022/05/13 02:28:15;;;;;;;6.05;2.60;;;17.40;93.70;;;;;;5039444;28;20353;-79
2022/05/13 02:30:40;;;;;;;7.70;2.38;;;17.20;93.70;;;;;;5027109;28;20025;-80
2022/05/13 02:33:06;;;;;;;5.68;2.50;;;17.20;93.80;;;;;;5038921;28;20032;-81
2022/05/13 02:35:33;;;;;;;6.18;2.22;;;17.30;93.80;;;;;;5025122;28;20487;-80
2022/05/13 02:37:59;;;;;;;7.60;2.33;;;17.50;93.90;;;;;;5042237;28;20033;-79
2022/05/13 02:41:11;;;;;;;8.13;2.75;;;17.50;93.90;;;;;;5029777;28;20052;-81
2022/05/13 02:43:12;;;;;;;6.88;2.33;;;17.20;94.30;;;;;;5040673;28;20090;-80
2022/05/13 02:45:38;;;;;;;6.60;2.40;;;17.20;94.20;;;;;;5027430;28;20019;-80
2022/05/13 02:48:04;;;;;;;4.03;2.05;;;17.30;94.60;;;;;;5025300;28;20044;-80
2022/05/13 02:50:30;;;;;;;7.53;3.03;;;17.00;94.50;;;;;;5020846;28;20017;-79
2022/05/13 02:52:55;;;;;;;5.85;2.35;;;17.10;94.80;;;;;;5024540;28;20037;-82
2022/05/13 02:55:21;;;;;;;4.93;2.30;;;17.60;95.20;;;;;;5029076;28;20484;-79
2022/05/13 02:57:47;;;;;;;9.25;2.88;;;16.90;95.10;;;;;;5039311;28;20022;-81
2022/05/13 03:00:13;;;;;;;12.73;3.00;;;17.50;95.50;;;;;;5033525;28;20033;-79
2022/05/13 03:02:39;;;;;;;8.60;2.70;;;16.90;95.30;;;;;;5027506;28;20026;-80
2022/05/13 03:05:05;;;;;;;7.03;2.63;;;16.90;95.40;;;;;;5037467;28;20522;-80
2022/05/13 03:07:31;;;;;;;9.65;2.55;;;16.90;95.40;;;;;;5041269;28;20024;-81
2022/05/13 03:09:57;;;;;;;6.85;2.30;;;17.00;95.40;;;;;;5041100;28;20045;-80
2022/05/13 03:12:26;;;;;;;7.25;2.60;;;;;;;;;;5040353;28;20037;-79
2022/05/13 03:14:51;;;;;;;8.05;2.60;;;16.90;95.30;;;;;;5043316;28;20036;-79
2022/05/13 03:17:17;;;;;;;5.03;2.80;;;18.20;95.70;;;;;;5023195;28;20141;-80
2022/05/13 03:19:43;;;;;;;12.95;2.75;;;16.90;95.30;;;;;;5032431;28;20033;-79
2022/05/13 03:22:08;;;;;;;9.20;3.10;;;17.90;95.50;;;;;;5038354;28;20022;-78
2022/05/13 03:24:34;;;;;;;10.15;3.10;;;16.90;95.20;;;;;;5028559;28;20041;-79
2022/05/13 03:27:00;;;;;;;10.98;2.92;;;16.90;95.30;;;;;;5024284;28;20026;-79
2022/05/13 03:29:27;;;;;;;9.90;2.70;;;;;;;;;;5043429;28;20577;-80
2022/05/13 03:31:54;;;;;;;7.25;2.67;;;16.90;94.80;;;;;;5021539;28;20021;-80
2022/05/13 03:34:21;;;;;;;8.65;3.13;;;16.90;95.00;;;;;;5044465;28;20025;-80
2022/05/13 03:36:49;;;;;;;8.85;2.80;;;16.80;94.90;;;;;;5030683;28;20518;-80
2022/05/13 03:39:15;;;;;;;9.20;2.80;;;16.80;94.80;;;;;;5027503;28;20523;-79
2022/05/13 03:41:41;;;;;;;7.22;2.40;;;16.80;94.70;;;;;;5018287;28;20029;-79
2022/05/13 03:44:06;;;;;;;6.22;2.42;;;17.10;94.90;;;;;;5022533;28;20084;-80
2022/05/13 03:46:32;;;;;;;6.82;2.47;;;16.70;94.70;;;;;;5023498;28;20605;-78
2022/05/13 03:48:58;;;;;;;9.30;2.47;;;16.70;94.70;;;;;;5024272;28;20171;-80
2022/05/13 03:51:23;;;;;;;6.70;2.80;;;16.70;94.70;;;;;;5039564;28;20060;-81
2022/05/13 03:53:49;;;;;;;8.30;2.75;;;16.60;94.90;;;;;;5042689;28;20079;-79
2022/05/13 03:56:15;;;;;;;6.05;2.20;;;16.50;94.80;;;;;;5022845;28;20037;-80
2022/05/13 03:58:42;;;;;;;4.28;2.40;;;16.50;95.00;;;;;;5022185;28;20120;-81
2022/05/13 04:01:07;;;;;;;7.97;2.50;;;16.40;95.10;;;;;;5024563;28;20021;-79
2022/05/13 04:03:33;;;;;;;8.07;2.28;;;16.40;95.30;;;;;;5028203;28;20052;-80
2022/05/13 04:08:58;;;;;;;7.25;2.30;;;16.30;95.20;;;;;;5055697;28;20036;-80
2022/05/13 04:11:30;;;;;;;7.88;2.78;;;16.30;95.50;;;;;;5039232;28;20029;-80
2022/05/13 04:16:40;;;;;;;7.22;2.50;;;16.20;95.40;;;;;;5032978;28;20156;-79
2022/05/13 04:19:06;;;;;;;8.25;2.67;;;16.30;95.40;;;;;;5034816;28;20272;-79
2022/05/13 04:21:35;;;;;;;6.40;3.00;;;16.30;95.60;;;;;;5037286;28;20113;-78
2022/05/13 04:24:04;;;;;;;7.25;2.70;;;16.30;99.90;;;;;;5038323;28;20030;-80
2022/05/13 04:26:30;;;;;;;8.38;2.92;;;16.20;95.60;;;;;;5027691;28;20112;-78
2022/05/13 04:28:56;;;;;;;10.18;2.75;;;16.30;95.90;;;;;;5024406;28;20538;-78
2022/05/13 04:31:25;;;;;;;6.07;2.25;;;16.20;95.80;;;;;;5036401;28;20037;-78
2022/05/13 04:33:52;;;;;;;8.18;2.67;;;16.20;96.00;;;;;;5039033;28;20089;-80
2022/05/13 04:36:19;;;;;;;11.63;2.30;;;16.20;96.00;;;;;;5026361;28;20034;-78
2022/05/13 04:38:45;;;;;;;8.20;2.60;;;16.20;96.10;;;;;;5019483;28;20061;-78
2022/05/13 04:43:56;;;;;;;12.13;3.17;;;16.20;96.10;;;;;;5039311;28;20036;-80
2022/05/13 04:46:22;;;;;;;7.80;2.78;;;16.30;96.10;;;;;;5030303;28;20017;-79
2022/05/13 04:48:48;;;;;;;8.60;2.47;;;16.20;96.00;;;;;;5036078;28;20125;-80
2022/05/13 04:51:17;;;;;;;7.80;2.90;;;16.10;96.00;;;;;;5027623;28;20426;-80
2022/05/13 04:53:43;;;;;;;9.65;3.65;;;16.20;95.80;;;;;;5035505;28;20075;-80
2022/05/13 04:56:09;;;;;;;9.65;2.75;;;16.10;96.00;;;;;;5032596;28;20472;-78
2022/05/13 04:58:36;;;;;;;12.02;3.20;;;16.00;96.10;;;;;;5030818;28;20044;-79
2022/05/13 05:01:03;;;;;;;8.23;2.75;;;15.90;96.10;;;;;;5030201;28;20029;-78
2022/05/13 05:03:30;;;;;;;10.55;2.90;;;15.80;96.20;;;;;;5036055;28;20025;-80
2022/05/13 05:05:57;;;;;;;9.95;3.33;;;16.00;95.80;;;;;;5034651;28;20561;-81
2022/05/13 05:08:24;;;;;;;7.93;2.85;;;;;;;;;;5020031;28;20041;-82
2022/05/13 05:10:50;;;;;;;8.10;2.75;;;;;;;;;;5017614;28;20039;-82
2022/05/13 05:13:27;;;;;;;8.05;2.80;;;15.90;95.30;;;;;;5037988;28;20034;-81
2022/05/13 05:15:54;;;;;;;7.88;2.67;;;16.00;95.50;;;;;;5033592;28;20030;-80
2022/05/13 05:18:20;;;;;;;8.10;2.60;;;;;;;;;;5036996;28;20097;-81
2022/05/13 05:20:46;;;;;;;11.25;3.05;;;;;;;;;;5014533;28;20029;-82
2022/05/13 05:23:14;;;;;;;14.85;2.80;;;16.30;94.40;;;;;;5033311;28;20069;-82
2022/05/13 05:25:39;;;;;;;10.63;2.53;;;17.10;98.20;;;;;;5022030;28;20097;-82
2022/05/13 05:28:05;;;;;;;5.93;2.45;;;17.90;91.40;;;;;;5021858;28;20080;-81
2022/05/13 05:30:31;;;;;;;8.27;2.33;;;18.10;91.50;;;;;;5040297;28;20060;-80
2022/05/13 05:32:56;;;;;;;8.23;2.30;;;19.30;89.40;;;;;;5021572;28;20021;-81
2022/05/13 05:35:23;;;;;;;9.75;2.67;;;19.70;86.50;;;;;;5042349;28;20053;-79
2022/05/13 05:37:49;;;;;;;8.85;3.25;;;20.00;84.30;;;;;;5018826;28;20030;-83
2022/05/13 05:40:15;;;;;;;6.45;2.03;;;20.00;84.20;;;;;;5041617;28;20029;-82
2022/05/13 05:42:42;;;;;;;6.25;2.10;;;20.20;81.70;;;;;;5031858;28;20022;-81
2022/05/13 05:45:11;;;;;;;4.82;1.70;;;20.40;79.40;;;;;;5043920;28;20030;-81
2022/05/13 05:47:37;;;;;;;8.30;2.28;;;19.90;78.40;;;;;;5037939;28;20111;-81
2022/05/13 05:50:06;;;;;;;6.35;1.90;;;20.10;78.70;;;;;;5040520;28;20479;-80
2022/05/13 05:52:32;;;;;;;9.05;1.83;;;19.80;85.10;;;;;;5038513;28;20025;-80
2022/05/13 05:58:00;;;;;;;5.25;1.80;;;20.80;78.00;;;;;;5038412;28;20036;-82
2022/05/13 06:00:26;;;;;;;7.72;1.65;;;20.40;77.10;;;;;;5021222;28;20372;-82
2022/05/13 06:02:53;;;;;;;7.05;1.65;;;19.70;78.30;;;;;;5040128;28;20041;-80
2022/05/13 06:05:19;;;;;;;6.25;2.03;;;19.60;78.60;;;;;;5019858;28;20030;-82
2022/05/13 06:07:46;;;;;;;10.27;1.88;;;19.20;79.10;;;;;;5033440;28;20045;-79
2022/05/13 06:10:13;;;;;;;5.90;2.30;;;19.20;79.60;;;;;;5026585;28;20387;-81
2022/05/13 06:12:40;;;;;;;6.88;2.38;;;19.10;80.10;;;;;;5039608;28;20029;-81
2022/05/13 06:15:06;;;;;;;5.47;1.92;;;17.80;88.20;;;;;;5037696;28;20025;-82
2022/05/13 06:17:32;;;;;;;5.53;2.10;;;18.60;81.50;;;;;;5022044;28;20041;-80
2022/05/13 06:19:58;;;;;;;5.65;2.20;;;;;;;;;;5024859;28;20030;-80
2022/05/13 06:22:24;;;;;;;10.27;2.00;;;18.60;81.10;;;;;;5036433;28;20063;-79
2022/05/13 06:24:49;;;;;;;7.20;2.00;;;18.70;80.60;;;;;;5023675;28;20068;-82
2022/05/13 06:27:15;;;;;;;6.57;1.75;;;;;;;;;;5025861;28;20048;-82
2022/05/13 06:29:41;;;;;;;8.60;2.20;;;;;;;;;;5021690;28;20026;-80
2022/05/13 06:32:08;;;;;;;8.73;1.67;;;18.70;79.20;;;;;;5042163;28;20033;-82
2022/05/13 06:34:34;;;;;;;3.92;1.75;;;18.60;80.20;;;;;;5027860;28;20069;-83
2022/05/13 06:37:00;;;;;;;6.05;1.67;;;;;;;;;;5022043;28;20033;-81
2022/05/13 06:39:25;;;;;;;5.88;1.60;;;18.50;78.50;;;;;;5022982;28;20072;-82
2022/05/13 06:41:51;;;;;;;4.25;1.50;;;18.50;79.00;;;;;;5041238;28;20030;-80
2022/05/13 06:44:18;;;;;;;4.88;1.70;;;18.60;78.30;;;;;;5020735;28;20033;-80
2022/05/13 06:46:44;;;;;;;7.93;2.25;;;18.70;77.00;;;;;;5023133;28;20112;-80
2022/05/13 06:49:12;;;;;;;5.30;1.38;;;18.80;75.20;;;;;;5035547;28;20037;-82
2022/05/13 06:51:40;;;;;;;9.27;1.90;;;21.00;74.60;;;;;;5018222;28;20030;-82
2022/05/13 06:54:09;;;;;;;8.65;2.05;;;18.50;77.00;;;;;;5039002;28;20039;-82
2022/05/13 06:56:36;;;;;;;7.78;1.90;;;18.80;89.00;;;;;;5024199;28;20120;-81
2022/05/13 06:59:03;;;;;;;6.30;1.80;;;;;;;;;;5035808;28;20488;-79
2022/05/13 07:01:29;;;;;;;7.28;1.90;;;18.60;80.70;;;;;;5021361;28;20093;-81
2022/05/13 07:03:55;;;;;;;6.63;1.90;;;;;;;;;;5011460;28;20061;-83
2022/05/13 07:06:21;;;;;;;7.18;2.33;;;18.60;80.10;;;;;;5035455;28;20650;-84
2022/05/13 07:08:49;;;;;;;8.05;2.20;;;;;;;;;;5019734;28;20037;-81
2022/05/13 07:11:16;;;;;;;5.50;2.05;;;;;;;;;;5035559;28;20032;-86
2022/05/13 07:13:42;;;;;;;9.40;2.00;;;18.50;91.40;;;;;;5021603;28;20123;-81
2022/05/13 07:16:08;;;;;;;5.63;1.95;;;;;;;;;;5031308;28;20053;-82
2022/05/13 07:18:36;;;;;;;6.80;1.80;;;;;;;;;;5023331;28;20049;-81
2022/05/13 07:21:02;;;;;;;6.00;1.70;;;;;;;;;;5034170;28;20030;-82
2022/05/13 07:23:29;;;;;;;6.70;2.05;;;;;;;;;;5020038;28;20025;-84
2022/05/13 07:25:56;;;;;;;5.43;1.95;;;18.50;74.00;;;;;;5021638;28;20045;-82
2022/05/13 07:28:22;;;;;;;4.97;1.83;;;;;;;;;;5033826;28;20030;-80
2022/05/13 07:30:48;;;;;;;11.10;1.73;;;;;;;;;;5020348;28;20079;-80
2022/05/13 07:33:14;;;;;;;7.82;1.90;;;;;;;;;;5039083;28;20025;-81
2022/05/13 07:35:41;;;;;;;7.93;1.75;;;;;;;;;;5037721;28;20543;-79
2022/05/13 07:38:07;;;;;;;10.85;2.83;;;18.50;75.00;;;;;;5031726;28;20040;-81
2022/05/13 07:43:19;;;;;;;6.65;1.40;;;18.80;75.00;;;;;;5040329;28;20035;-80
2022/05/13 07:45:45;;;;;;;5.68;1.70;;;;;;;;;;5039130;28;20462;-81
2022/05/13 07:48:11;;;;;;;4.60;1.63;;;18.70;75.70;;;;;;5039866;28;20025;-82
2022/05/13 07:50:37;;;;;;;9.30;1.90;;;18.70;76.10;;;;;;5006865;28;20034;-81
2022/05/13 07:53:04;;;;;;;8.13;2.15;;;18.90;85.30;;;;;;5040225;28;20044;-82
2022/05/13 07:55:30;;;;;;;8.20;1.85;;;;;;;;;;5019427;28;20029;-83
2022/05/13 07:57:56;;;;;;;7.72;2.22;;;;;;;;;;5039852;28;20018;-82
2022/05/13 08:00:32;;;;;;;6.18;1.60;;;19.00;75.30;;;;;;5020066;28;20035;-81
2022/05/13 08:03:06;;;;;;;6.25;1.85;;;19.10;75.90;;;;;;5041468;28;20053;-81
2022/05/13 08:06:03;;;;;;;10.80;2.30;;;19.40;74.60;;;;;;5038766;28;20377;-82
2022/05/13 08:08:34;;;;;;;9.00;1.70;;;19.50;78.80;;;;;;5019723;28;20148;-79
2022/05/13 08:11:01;;;;;;;4.85;1.52;;;19.60;78.00;;;;;;5039974;28;20081;-82
2022/05/13 08:13:31;;;;;;;8.75;1.55;;;19.40;72.40;;;;;;5036255;28;20021;-83
2022/05/13 08:15:58;;;;;;;8.55;1.60;;;19.10;77.40;;;;;;5019234;28;20120;-81
2022/05/13 08:18:24;;;;;;;6.43;1.50;;;19.20;71.70;;;;;;5042657;28;20030;-85
2022/05/13 08:20:50;;;;;;;5.32;1.42;;;19.20;88.80;;;;;;5035515;28;20033;-82
2022/05/13 08:23:17;;;;;;;6.22;1.73;;;19.50;70.70;;;;;;5035942;28;20099;-80
2022/05/13 08:25:44;;;;;;;3.92;1.50;;;;;;;;;;5023322;28;20026;-79
2022/05/13 08:28:11;;;;;;;3.30;1.20;;;19.80;69.10;;;;;;5033865;28;20072;-82
2022/05/13 08:30:37;;;;;;;5.20;1.58;;;19.80;81.20;;;;;;5022457;28;20025;-81
2022/05/13 08:33:08;;;;;;;4.90;1.70;;;19.80;69.50;;;;;;5022872;28;20022;-82
2022/05/13 08:35:35;;;;;;;4.70;1.80;;;19.80;69.90;;;;;;5018968;28;20403;-81
2022/05/13 08:38:01;;;;;;;5.38;1.98;;;19.80;71.10;;;;;;5040031;28;20022;-82
2022/05/13 08:40:49;;;;;;;6.68;1.45;;;19.90;70.20;;;;;;5020059;28;20033;-81
2022/05/13 08:43:19;;;;;;;5.95;1.60;;;19.90;69.30;;;;;;5021718;28;20048;-81
2022/05/13 08:45:52;;;;;;;6.55;1.38;;;20.50;70.10;;;;;;5019497;28;20026;-81
2022/05/13 08:48:24;;;;;;;7.38;1.42;;;19.90;69.80;;;;;;5024380;28;20499;-82
2022/05/13 08:51:07;;;;;;;4.82;1.23;;;20.20;68.90;;;;;;5017969;28;20341;-82
2022/05/13 08:53:49;;;;;;;6.40;2.50;;;20.10;69.20;;;;;;5025308;28;20021;-82
2022/05/13 08:56:24;;;;;;;5.60;1.38;;;20.00;68.00;;;;;;5023290;28;20517;-81
2022/05/13 08:59:00;;;;;;;5.53;1.42;;;20.20;68.80;;;;;;5028483;28;20036;-81
2022/05/13 09:01:32;;;;;;;4.97;1.38;;;20.10;68.00;;;;;;5020981;28;20363;-79
2022/05/13 09:04:28;;;;;;;4.88;1.60;;;20.00;68.50;;;;;;5008087;28;20026;-81
2022/05/13 09:07:01;;;;;;;5.40;1.30;;;19.90;68.10;;;;;;5020127;28;20018;-82
2022/05/13 09:09:26;;;;;;;4.47;1.20;;;19.90;68.60;;;;;;5045047;28;20030;-80
2022/05/13 09:12:01;;;;;;;4.93;1.55;;;20.00;67.90;;;;;;5027761;28;20036;-79
2022/05/13 09:14:53;;;;;;;5.85;1.33;;;20.00;68.10;;;;;;5032632;28;20034;-81
2022/05/13 09:17:40;;;;;;;3.95;1.33;;;19.90;68.40;;;;;;5053154;28;20027;-81
2022/05/13 09:20:06;;;;;;;3.80;1.60;;;;;;;;;;5041685;28;20516;-80
2022/05/13 09:22:52;;;;;;;4.72;1.40;;;20.20;68.20;;;;;;5046030;28;20018;-81
2022/05/13 09:25:27;;;;;;;6.80;1.33;;;20.30;67.70;;;;;;5026978;28;20049;-82
2022/05/13 09:28:00;;;;;;;4.43;1.40;;;20.30;67.60;;;;;;5044645;28;20074;-79
2022/05/13 09:30:42;;;;;;;4.53;1.58;;;20.40;68.70;;;;;;5025392;28;20040;-80
2022/05/13 09:33:17;;;;;;;4.20;1.50;;;20.60;67.60;;;;;;5028779;28;20102;-80
2022/05/13 09:35:43;;;;;;;4.82;1.27;;;20.60;68.20;;;;;;5044015;28;20064;-82
2022/05/13 09:38:24;;;;;;;3.72;1.33;;;20.70;67.60;;;;;;5043595;28;20029;-83
2022/05/13 09:41:05;;;;;;;5.15;1.40;;;20.90;67.80;;;;;;5046414;28;20025;-81
2022/05/13 09:43:42;;;;;;;5.10;1.92;;;20.90;66.70;;;;;;5053459;28;20056;-84
2022/05/13 09:46:18;;;;;;;4.47;1.50;;;21.00;66.10;;;;;;5041434;28;20044;-83
2022/05/13 09:48:57;;;;;;;5.85;1.60;;;20.90;66.30;;;;;;5040769;28;20033;-81
2022/05/13 09:51:25;;;;;;;5.45;1.30;;;21.30;66.20;;;;;;5040498;28;20257;-83
2022/05/13 09:54:31;;;;;;;8.52;2.33;;;21.50;64.90;;;;;;5053530;28;20037;-83
2022/05/13 09:57:05;;;;;;;4.32;1.48;;;21.50;65.40;;;;;;5029776;28;20117;-82
2022/05/13 09:59:43;;;;;;;4.28;1.75;;;21.60;64.90;;;;;;5038775;28;20032;-81
2022/05/13 10:02:36;;;;;;;4.97;1.30;;;21.70;64.40;;;;;;5019873;28;20512;-82
2022/05/13 10:05:16;;;;;;;8.10;1.67;;;21.80;63.10;;;;;;5006668;28;20123;-82
2022/05/13 10:08:05;;;;;;;3.10;1.50;;;21.80;62.80;;;;;;5036031;28;20250;-82
2022/05/13 10:13:59;;;;;;;3.47;1.00;;;21.60;62.90;;;;;;5036449;28;20033;-81
2022/05/13 10:16:34;;;;;;;5.82;1.73;;;21.60;61.30;;;;;;5026153;28;20037;-81
2022/05/13 10:19:06;;;;;;;6.20;1.27;;;21.60;61.90;;;;;;5018378;28;20420;-81
2022/05/13 10:21:52;;;;;;;6.20;1.30;;;21.60;62.10;;;;;;5028361;28;20030;-80
2022/05/13 10:24:28;;;;;;;5.97;1.30;;;21.90;62.90;;;;;;5022539;28;20064;-82
2022/05/13 10:26:56;;;;;;;5.22;1.50;;;21.90;62.00;;;;;;5020480;28;20255;-79
2022/05/13 10:29:37;;;;;;;5.30;1.15;;;21.80;60.80;;;;;;5021502;28;20045;-83
2022/05/13 10:32:10;;;;;;;10.23;2.17;;;22.00;60.30;;;;;;5037240;28;20040;-81
2022/05/13 10:34:41;;;;;;;5.07;1.40;;;22.00;60.00;;;;;;5020167;28;20025;-80
2022/05/13 10:37:37;;;;;;;3.40;1.30;;;22.00;60.70;;;;;;5022505;28;20025;-81
2022/05/13 10:40:13;;;;;;;2.95;1.10;;;22.10;60.10;;;;;;5038120;28;20030;-82
2022/05/13 10:43:00;;;;;;;4.15;1.13;;;22.40;60.90;;;;;;5043125;28;20029;-82
2022/05/13 10:45:27;;;;;;;5.18;1.42;;;22.20;60.00;;;;;;5021027;28;20017;-83
2022/05/13 10:47:58;;;;;;;3.58;1.30;;;22.40;59.20;;;;;;5018408;28;20049;-80
2022/05/13 10:50:29;;;;;;;3.67;1.30;;;22.30;59.60;;;;;;5020177;28;20057;-77
2022/05/13 10:53:28;;;;;;;4.82;1.50;;;22.10;60.10;;;;;;5034841;28;20185;-82
2022/05/13 10:56:20;;;;;;;6.05;1.30;;;22.50;58.50;;;;;;5024120;28;20041;-80
2022/05/13 10:59:11;;;;;;;3.38;1.50;;;22.40;59.10;;;;;;5026008;28;20036;-79
2022/05/13 11:02:13;;;;;;;4.63;1.30;;;22.70;58.80;;;;;;5036481;28;20036;-81
2022/05/13 11:05:01;;;;;;;6.22;0.98;;;22.80;57.90;;;;;;5014086;28;20025;-82
2022/05/13 11:07:51;;;;;;;3.25;0.90;;;22.70;57.30;;;;;;5040982;28;20040;-81
2022/05/13 11:10:42;;;;;;;4.90;1.50;;;22.70;58.30;;;;;;5039738;28;20034;-79
2022/05/13 11:13:25;;;;;;;4.15;1.10;;;22.80;58.60;;;;;;5017005;28;20295;-81
2022/05/13 11:16:17;;;;;;;4.53;1.38;;;22.90;56.70;;;;;;5023775;28;20119;-80
2022/05/13 11:18:52;;;;;;;4.70;1.42;;;22.80;57.10;;;;;;5021593;28;20026;-82
2022/05/13 11:21:18;;;;;;;4.80;1.60;;;22.40;58.20;;;;;;5051163;28;20009;-83
2022/05/13 11:27:06;;;;;;;4.80;2.45;;;22.50;58.00;;;;;;5031469;28;20036;-80
2022/05/13 11:29:52;;;;;;;3.97;0.80;;;22.70;58.10;;;;;;5022617;28;20029;-80
2022/05/13 11:32:45;;;;;;;6.35;1.23;;;22.70;56.60;;;;;;5036497;28;20037;-79
2022/05/13 11:35:35;;;;;;;9.43;1.60;;;22.80;57.10;;;;;;5017136;28;20032;-80
2022/05/13 11:38:10;;;;;;;5.15;1.27;;;22.80;57.70;;;;;;5014882;28;20060;-80
2022/05/13 11:41:15;;;;;;;4.88;1.30;;;23.00;56.40;;;;;;5022618;28;20030;-80
2022/05/13 11:43:47;;;;;;;4.53;1.38;;;23.00;56.50;;;;;;5032560;28;20085;-79
2022/05/13 11:46:28;;;;;;;7.75;1.17;;;23.10;56.50;;;;;;5022019;28;20419;-82
2022/05/13 11:49:02;;;;;;;3.78;1.05;;;23.20;56.70;;;;;;5039822;28;20045;-81
2022/05/13 11:51:31;;;;;;;4.95;1.10;;;23.40;55.10;;;;;;5021101;28;20034;-82
2022/05/13 11:53:59;;;;;;;2.45;1.13;;;23.40;55.30;;;;;;5037049;28;20057;-82
2022/05/13 11:56:31;;;;;;;5.38;1.27;;;23.50;55.30;;;;;;5023930;28;20029;-81
2022/05/13 11:58:58;;;;;;;5.53;1.35;;;23.50;55.70;;;;;;5038847;28;20101;-80
2022/05/13 12:01:36;;;;;;;2.97;1.13;;;23.40;55.30;;;;;;5025946;28;20480;-81
2022/05/13 12:04:14;;;;;;;2.03;0.80;;;23.30;54.70;;;;;;5034164;28;20480;-79
2022/05/13 12:06:51;;;;;;;3.85;1.35;;;23.30;55.30;;;;;;5034148;28;20025;-79
2022/05/13 12:09:35;;;;;;;4.55;1.20;;;23.30;55.40;;;;;;5020441;28;20063;-81
2022/05/13 12:12:12;;;;;;;4.38;0.90;;;23.30;56.00;;;;;;5040817;28;20429;-80
2022/05/13 12:14:41;;;;;;;4.10;0.98;;;23.10;55.30;;;;;;5024869;28;20029;-79
2022/05/13 12:17:28;;;;;;;5.72;1.20;;;23.10;56.00;;;;;;5023113;28;20614;-80
2022/05/13 12:20:28;;;;;;;3.15;1.10;;;23.40;54.40;;;;;;5044524;28;20029;-79
2022/05/13 12:23:17;;;;;;;5.57;1.98;;;23.10;55.10;;;;;;5036632;28;20100;-80
2022/05/13 12:25:52;;;;;;;5.82;1.73;;;22.60;56.00;;;;;;5034716;28;20033;-80
2022/05/13 12:28:18;;;;;;;4.05;1.30;;;;;;;;;;5006328;28;20033;-81
2022/05/13 12:30:50;;;;;;;5.07;1.40;;;23.00;55.60;;;;;;5018837;28;20028;-81
2022/05/13 12:33:19;;;;;;;3.30;1.20;;;23.50;54.70;;;;;;5041763;28;20021;-81
2022/05/13 12:39:04;;;;;;;4.10;1.30;;;23.30;55.40;;;;;;5012847;28;20120;-81
2022/05/13 12:41:53;;;;;;;2.25;0.98;;;23.60;54.60;;;;;;5020682;28;20022;-81
2022/05/13 12:44:35;;;;;;;5.03;1.20;;;23.80;54.20;;;;;;5039456;28;20018;-79
2022/05/13 12:47:13;;;;;;;2.60;1.00;;;23.70;54.30;;;;;;5036188;28;20064;-79
2022/05/13 12:50:01;;;;;;;3.00;1.00;;;23.80;55.00;;;;;;5034158;28;20036;-79
2022/05/13 12:52:26;;;;;;;2.90;0.98;;;23.70;54.70;;;;;;5019908;28;20033;-79
2022/05/13 12:54:59;;;;;;;3.58;1.10;;;23.70;54.60;;;;;;5040419;28;20025;-80
2022/05/13 12:57:33;;;;;;;2.70;1.00;;;23.90;54.50;;;;;;5018124;28;20053;-79
2022/05/13 12:59:59;;;;;;;3.60;1.20;;;23.90;55.10;;;;;;5031866;28;20032;-80
2022/05/13 13:02:29;;;;;;;6.18;1.10;;;23.90;54.90;;;;;;5041866;28;20029;-80
2022/05/13 13:05:03;;;;;;;4.35;1.20;;;23.80;54.90;;;;;;5024723;28;20026;-79
2022/05/13 13:07:32;;;;;;;4.75;1.10;;;23.60;55.00;;;;;;5020655;28;20025;-80
2022/05/13 13:09:58;;;;;;;5.32;1.90;;;23.60;55.50;;;;;;5022617;28;20037;-79
2022/05/13 13:12:53;;;;;;;6.18;1.20;;;23.70;55.10;;;;;;5043085;28;20060;-82
2022/05/13 13:15:23;;;;;;;3.85;1.35;;;23.70;54.30;;;;;;5020923;28;20055;-79
2022/05/13 13:17:57;;;;;;;;;;;23.90;54.80;;;;;;5040688;28;20108;-81
2022/05/13 13:20:26;;;;;;;56.17;26.55;;;23.80;53.20;;;;;;5042370;28;19924;-79
2022/05/13 13:22:58;;;;;;;29.98;13.38;;;23.80;53.60;;;;;;5019528;28;20523;-78
2022/05/13 13:25:31;;;;;;;4.22;1.20;;;23.80;53.40;;;;;;5020190;28;20030;-78
2022/05/13 13:27:59;;;;;;;3.80;1.00;;;23.90;52.30;;;;;;5034992;28;20032;-80
2022/05/13 13:30:26;;;;;;;4.78;1.15;;;23.90;52.10;;;;;;5022876;28;20080;-79
2022/05/13 13:32:53;;;;;;;3.30;1.00;;;24.10;52.40;;;;;;5024947;28;20515;-80
2022/05/13 13:35:50;;;;;;;3.15;0.80;;;24.00;53.30;;;;;;5017977;28;20539;-80
2022/05/13 13:38:18;;;;;;;5.85;0.95;;;23.80;54.00;;;;;;5042563;28;20049;-79
2022/05/13 13:40:46;;;;;;;4.35;0.98;;;23.80;54.30;;;;;;5027468;28;20021;-80